PWSweather.com
Personal Weather Stations
Station Observations
DW1086
Crab Meadow, Northport, NY 11768

Crab MeadowNorthport, NY 11768

Lat: 40.92341, Lon: -73.33053

Elevation: 20

Station Type: Davis Vantage Pro 2

http://crabmeadow-weather.org

Latest ConditionsUpdated 10:50:00 PM EDT Monday, Mar 25, 2019
Currently Today's Max Today's Min Today's Average
Temperature 43.6°F6.4°C 51.0°F10.6°C 43.6°F6.4°C 48.4°F9.1°C
Dew Point 28.9°F-1.7°C 38.3°F3.5°C 27.4°F-2.6°C 33.3°F0.7°C
Winds 3.5 mph N5.6 kmh N 6.9 mph -11.1 kmh - - 0.9 mph 1.4 kmh
Wind Gusts 5.8 mph9.3 kmh 9.2 mph14.8 kmh - -
Humidity 56% 67% 48% 56%
Pressure 30.06 in1017.9 mb 30.07 in1018.3 mb 29.98 in1015.2 mb -
Hour Temp Dew Point Humidity Winds Wind Gusts Pressure Precip Precip Rate Daily Precip Total
10:50 PM 43.6°F6.4°C 28.9°F-1.7°C 56% 3.5 mph N5.6 kmh N 5.8 mph9.3 kmh 30.06 in1017.9 mb - 0.00 in0.0 mm 0.00 in0.0 mm
10:40 PM 44.1°F6.7°C 29.8°F-1.2°C 57% 1.2 mph NNE1.9 kmh NNE 4.6 mph7.4 kmh 30.06 in1017.9 mb - 0.00 in0.0 mm 0.00 in0.0 mm
10:30 PM 44.4°F6.9°C 27.4°F-2.6°C 51% 3.5 mph NNE5.6 kmh NNE 5.8 mph9.3 kmh 30.05 in1017.6 mb - 0.00 in0.0 mm 0.00 in0.0 mm
10:20 PM 44.9°F7.2°C 29.7°F-1.3°C 55% 5.8 mph N9.3 kmh N 9.2 mph14.8 kmh 30.05 in1017.6 mb - 0.00 in0.0 mm 0.00 in0.0 mm
10:10 PM 45.4°F7.4°C 35.1°F1.7°C 67% Calm Calm 2.3 mph3.7 kmh 30.05 in1017.6 mb - 0.00 in0.0 mm 0.00 in0.0 mm
10:00 PM 45.8°F7.7°C 35.1°F1.7°C 66% 4.6 mph N7.4 kmh N 6.9 mph11.1 kmh 30.05 in1017.6 mb - 0.00 in0.0 mm 0.00 in0.0 mm
09:50 PM 45.9°F7.7°C 32.8°F0.4°C 60% Calm Calm -- 30.04 in1017.3 mb - 0.00 in0.0 mm 0.00 in0.0 mm
09:40 PM 45.9°F7.7°C 32.8°F0.4°C 60% Calm Calm -- 30.04 in1017.3 mb - 0.00 in0.0 mm 0.00 in0.0 mm
09:30 PM 46.0°F7.8°C 32.9°F0.5°C 60% Calm Calm -- 30.04 in1017.3 mb - 0.00 in0.0 mm 0.00 in0.0 mm
09:20 PM 46.0°F7.8°C 32.9°F0.5°C 60% Calm Calm -- 30.03 in1016.9 mb - 0.00 in0.0 mm 0.00 in0.0 mm
09:10 PM 46.1°F7.8°C 33.0°F0.6°C 60% Calm Calm -- 30.04 in1017.3 mb - 0.00 in0.0 mm 0.00 in0.0 mm
09:00 PM 46.2°F7.9°C 33.1°F0.6°C 60% Calm Calm -- 30.04 in1017.3 mb - 0.00 in0.0 mm 0.00 in0.0 mm
08:50 PM 46.3°F7.9°C 33.2°F0.7°C 60% Calm Calm -- 30.04 in1017.3 mb - 0.00 in0.0 mm 0.00 in0.0 mm
08:40 PM 46.3°F7.9°C 32.3°F0.2°C 58% Calm Calm -- 30.04 in1017.3 mb - 0.00 in0.0 mm 0.00 in0.0 mm
08:30 PM 46.4°F8.0°C 32.4°F0.2°C 58% Calm Calm -- 30.04 in1017.3 mb - 0.00 in0.0 mm 0.00 in0.0 mm
08:20 PM 46.5°F8.1°C 32.1°F0.1°C 57% Calm Calm -- 30.04 in1017.3 mb - 0.00 in0.0 mm 0.00 in0.0 mm
08:10 PM 46.6°F8.1°C 32.2°F0.1°C 57% Calm Calm -- 30.04 in1017.3 mb - 0.00 in0.0 mm 0.00 in0.0 mm
08:00 PM 46.8°F8.2°C 32.4°F0.2°C 57% Calm Calm -- 30.04 in1017.3 mb - 0.00 in0.0 mm 0.00 in0.0 mm
07:50 PM 47.0°F8.3°C 32.1°F0.1°C 56% Calm Calm -- 30.04 in1017.3 mb - 0.00 in0.0 mm 0.00 in0.0 mm
07:40 PM 47.1°F8.4°C 32.2°F0.1°C 56% Calm Calm -- 30.04 in1017.3 mb - 0.00 in0.0 mm 0.00 in0.0 mm
07:30 PM 47.3°F8.5°C 32.4°F0.2°C 56% Calm Calm -- 30.04 in1017.3 mb - 0.00 in0.0 mm 0.00 in0.0 mm
07:20 PM 47.5°F8.6°C 32.1°F0.1°C 55% Calm Calm -- 30.03 in1016.9 mb - 0.00 in0.0 mm 0.00 in0.0 mm
07:10 PM 47.7°F8.7°C 31.8°F-0.1°C 54% Calm Calm -- 30.02 in1016.6 mb - 0.00 in0.0 mm 0.00 in0.0 mm
07:00 PM 47.8°F8.8°C 31.5°F-0.3°C 53% Calm Calm -- 30.01 in1016.3 mb - 0.00 in0.0 mm 0.00 in0.0 mm
06:50 PM 48.0°F8.9°C 32.1°F0.1°C 54% Calm Calm -- 30.01 in1016.3 mb - 0.00 in0.0 mm 0.00 in0.0 mm
06:40 PM 48.2°F9.0°C 32.3°F0.2°C 54% Calm Calm -- 30.01 in1016.3 mb - 0.00 in0.0 mm 0.00 in0.0 mm
06:30 PM 48.3°F9.1°C 32.9°F0.5°C 55% Calm Calm -- 30.01 in1016.3 mb - 0.00 in0.0 mm 0.00 in0.0 mm
06:20 PM 48.3°F9.1°C 32.4°F0.2°C 54% Calm Calm -- 30.01 in1016.3 mb - 0.00 in0.0 mm 0.00 in0.0 mm
06:10 PM 48.3°F9.1°C 32.9°F0.5°C 55% Calm Calm -- 30.01 in1016.3 mb - 0.00 in0.0 mm 0.00 in0.0 mm
06:00 PM 48.3°F9.1°C 32.4°F0.2°C 54% Calm Calm -- 30.02 in1016.6 mb - 0.00 in0.0 mm 0.00 in0.0 mm
05:50 PM 48.2°F9.0°C 32.8°F0.4°C 55% Calm Calm -- 30.02 in1016.6 mb - 0.00 in0.0 mm 0.00 in0.0 mm
05:40 PM 48.1°F8.9°C 32.7°F0.4°C 55% Calm Calm -- 30.02 in1016.6 mb - 0.00 in0.0 mm 0.00 in0.0 mm
05:30 PM 48.0°F8.9°C 33.0°F0.6°C 56% Calm Calm -- 30.02 in1016.6 mb - 0.00 in0.0 mm 0.00 in0.0 mm
05:20 PM 47.9°F8.8°C 32.0°F0.0°C 54% Calm Calm -- 30.03 in1016.9 mb - 0.00 in0.0 mm 0.00 in0.0 mm
05:10 PM 47.8°F8.8°C 32.4°F0.2°C 55% Calm Calm -- 30.04 in1017.3 mb - 0.00 in0.0 mm 0.00 in0.0 mm
05:00 PM 47.7°F8.7°C 31.4°F-0.3°C 53% Calm Calm -- 30.04 in1017.3 mb - 0.00 in0.0 mm 0.00 in0.0 mm
04:50 PM 47.8°F8.8°C 31.5°F-0.3°C 53% Calm Calm -- 30.04 in1017.3 mb - 0.00 in0.0 mm 0.00 in0.0 mm
04:40 PM 47.8°F8.8°C 31.5°F-0.3°C 53% Calm Calm -- 30.04 in1017.3 mb - 0.00 in0.0 mm 0.00 in0.0 mm
04:30 PM 47.9°F8.8°C 31.6°F-0.2°C 53% Calm Calm -- 30.04 in1017.3 mb - 0.00 in0.0 mm 0.00 in0.0 mm
04:20 PM 48.1°F8.9°C 32.7°F0.4°C 55% Calm Calm -- 30.04 in1017.3 mb - 0.00 in0.0 mm 0.00 in0.0 mm
04:10 PM 48.3°F9.1°C 32.4°F0.2°C 54% Calm Calm -- 30.04 in1017.3 mb - 0.00 in0.0 mm 0.00 in0.0 mm
04:00 PM 48.7°F9.3°C 32.8°F0.4°C 54% Calm Calm 1.2 mph1.9 kmh 30.04 in1017.3 mb - 0.00 in0.0 mm 0.00 in0.0 mm
03:50 PM 48.8°F9.3°C 33.3°F0.7°C 55% Calm Calm -- 30.04 in1017.3 mb - 0.00 in0.0 mm 0.00 in0.0 mm
03:40 PM 48.8°F9.3°C 34.7°F1.5°C 58% Calm Calm 1.2 mph1.9 kmh 30.04 in1017.3 mb - 0.00 in0.0 mm 0.00 in0.0 mm
03:30 PM 48.7°F9.3°C 34.6°F1.4°C 58% 1.2 mph NE1.9 kmh NE 4.6 mph7.4 kmh 30.04 in1017.3 mb - 0.00 in0.0 mm 0.00 in0.0 mm
03:20 PM 48.6°F9.2°C 35.3°F1.8°C 60% 1.2 mph NE1.9 kmh NE 3.5 mph5.6 kmh 30.04 in1017.3 mb - 0.00 in0.0 mm 0.00 in0.0 mm
03:10 PM 48.3°F9.1°C 35.9°F2.2°C 62% 1.2 mph NE1.9 kmh NE 3.5 mph5.6 kmh 30.04 in1017.3 mb - 0.00 in0.0 mm 0.00 in0.0 mm
03:00 PM 48.0°F8.9°C 33.9°F1.1°C 58% 3.5 mph NNE5.6 kmh NNE 4.6 mph7.4 kmh 30.05 in1017.6 mb - 0.00 in0.0 mm 0.00 in0.0 mm
02:50 PM 47.9°F8.8°C 36.7°F2.6°C 65% 1.2 mph NNE1.9 kmh NNE 3.5 mph5.6 kmh 30.05 in1017.6 mb - 0.00 in0.0 mm 0.00 in0.0 mm
02:40 PM 47.6°F8.7°C 35.2°F1.8°C 62% 1.2 mph NNE1.9 kmh NNE 1.2 mph1.9 kmh 30.04 in1017.3 mb - 0.00 in0.0 mm 0.00 in0.0 mm
02:30 PM 47.8°F8.8°C 35.8°F2.1°C 63% 4.6 mph NNE7.4 kmh NNE 9.2 mph14.8 kmh 30.05 in1017.6 mb - 0.00 in0.0 mm 0.00 in0.0 mm
02:20 PM 47.8°F8.8°C 36.2°F2.3°C 64% 5.8 mph NNE9.3 kmh NNE 8.1 mph13.0 kmh 30.05 in1017.6 mb - 0.00 in0.0 mm 0.00 in0.0 mm
02:10 PM 47.9°F8.8°C 35.5°F1.9°C 62% 5.8 mph NNE9.3 kmh NNE 5.8 mph9.3 kmh 30.06 in1017.9 mb - 0.00 in0.0 mm 0.00 in0.0 mm
02:00 PM 48.3°F9.1°C 36.3°F2.4°C 63% 4.6 mph NNE7.4 kmh NNE 5.8 mph9.3 kmh 30.07 in1018.3 mb - 0.00 in0.0 mm 0.00 in0.0 mm
01:50 PM 48.5°F9.2°C 36.9°F2.7°C 64% 1.2 mph NE1.9 kmh NE 2.3 mph3.7 kmh 30.06 in1017.9 mb - 0.00 in0.0 mm 0.00 in0.0 mm
01:40 PM 48.5°F9.2°C 36.5°F2.5°C 63% 2.3 mph NNE3.7 kmh NNE 5.8 mph9.3 kmh 30.07 in1018.3 mb - 0.00 in0.0 mm 0.00 in0.0 mm
01:30 PM 49.0°F9.4°C 36.1°F2.3°C 61% 1.2 mph NE1.9 kmh NE 2.3 mph3.7 kmh 30.07 in1018.3 mb - 0.00 in0.0 mm 0.00 in0.0 mm
01:20 PM 49.1°F9.5°C 35.8°F2.1°C 60% 2.3 mph NE3.7 kmh NE 5.8 mph9.3 kmh 30.07 in1018.3 mb - 0.00 in0.0 mm 0.00 in0.0 mm
01:10 PM 49.3°F9.6°C 35.6°F2.0°C 59% 4.6 mph NNE7.4 kmh NNE 9.2 mph14.8 kmh 30.07 in1018.3 mb - 0.00 in0.0 mm 0.00 in0.0 mm
01:00 PM 49.7°F9.8°C 35.9°F2.2°C 59% 5.8 mph NNE9.3 kmh NNE 8.1 mph13.0 kmh 30.07 in1018.3 mb - 0.00 in0.0 mm 0.00 in0.0 mm
12:50 PM 49.6°F9.8°C 38.3°F3.5°C 65% 2.3 mph NE3.7 kmh NE 4.6 mph7.4 kmh 30.06 in1017.9 mb - 0.00 in0.0 mm 0.00 in0.0 mm
12:40 PM 49.6°F9.8°C 38.3°F3.5°C 65% 1.2 mph ENE1.9 kmh ENE 1.2 mph1.9 kmh 30.06 in1017.9 mb - 0.00 in0.0 mm 0.00 in0.0 mm
12:30 PM 50.1°F10.1°C 37.6°F3.1°C 62% 1.2 mph NE1.9 kmh NE 2.3 mph3.7 kmh 30.06 in1017.9 mb - 0.00 in0.0 mm 0.00 in0.0 mm
12:20 PM 50.5°F10.3°C 38.0°F3.3°C 62% 1.2 mph NE1.9 kmh NE 3.5 mph5.6 kmh 30.06 in1017.9 mb - 0.00 in0.0 mm 0.00 in0.0 mm
12:10 PM 50.8°F10.4°C 37.0°F2.8°C 59% 1.2 mph NNE1.9 kmh NNE 4.6 mph7.4 kmh 30.07 in1018.3 mb - 0.00 in0.0 mm 0.00 in0.0 mm
12:00 PM 51.0°F10.6°C 38.0°F3.3°C 61% Calm Calm 5.8 mph9.3 kmh 30.07 in1018.3 mb - 0.00 in0.0 mm 0.00 in0.0 mm
11:50 AM 50.7°F10.4°C 36.4°F2.4°C 58% 3.5 mph N5.6 kmh N 5.8 mph9.3 kmh 30.07 in1018.3 mb - 0.00 in0.0 mm 0.00 in0.0 mm
11:40 AM 49.9°F9.9°C 37.0°F2.8°C 61% 2.3 mph N3.7 kmh N 6.9 mph11.1 kmh 30.07 in1018.3 mb - 0.00 in0.0 mm 0.00 in0.0 mm
11:30 AM 49.2°F9.6°C 35.9°F2.2°C 60% 1.2 mph NNE1.9 kmh NNE 4.6 mph7.4 kmh 30.07 in1018.3 mb - 0.00 in0.0 mm 0.00 in0.0 mm
11:20 AM 48.8°F9.3°C 36.4°F2.4°C 62% 2.3 mph ENE3.7 kmh ENE 4.6 mph7.4 kmh 30.07 in1018.3 mb - 0.00 in0.0 mm 0.00 in0.0 mm
11:10 AM 48.3°F9.1°C 35.0°F1.7°C 60% 2.3 mph NNE3.7 kmh NNE 3.5 mph5.6 kmh 30.07 in1018.3 mb - 0.00 in0.0 mm 0.00 in0.0 mm
11:00 AM 48.1°F8.9°C 35.7°F2.1°C 62% 1.2 mph NNE1.9 kmh NNE 2.3 mph3.7 kmh 30.07 in1018.3 mb - 0.00 in0.0 mm 0.00 in0.0 mm
10:50 AM 48.2°F9.0°C 37.0°F2.8°C 65% Calm Calm -- 30.06 in1017.9 mb - 0.00 in0.0 mm 0.00 in0.0 mm
10:40 AM 48.4°F9.1°C 37.2°F2.9°C 65% 1.2 mph NE1.9 kmh NE 1.2 mph1.9 kmh 30.06 in1017.9 mb - 0.00 in0.0 mm 0.00 in0.0 mm
10:30 AM 48.9°F9.4°C 37.2°F2.9°C 64% Calm Calm 1.2 mph1.9 kmh 30.06 in1017.9 mb - 0.00 in0.0 mm 0.00 in0.0 mm
10:20 AM 48.9°F9.4°C 36.5°F2.5°C 62% Calm Calm 1.2 mph1.9 kmh 30.05 in1017.6 mb - 0.00 in0.0 mm 0.00 in0.0 mm
10:10 AM 49.0°F9.4°C 35.3°F1.8°C 59% 6.9 mph NNE11.1 kmh NNE 9.2 mph14.8 kmh 30.05 in1017.6 mb - 0.00 in0.0 mm 0.00 in0.0 mm
10:00 AM 49.0°F9.4°C 34.9°F1.6°C 58% 2.3 mph NNW3.7 kmh NNW 3.5 mph5.6 kmh 30.04 in1017.3 mb - 0.00 in0.0 mm 0.00 in0.0 mm
09:50 AM 49.1°F9.5°C 35.8°F2.1°C 60% 3.5 mph 5.6 kmh 5.8 mph9.3 kmh 30.04 in1017.3 mb - 0.00 in0.0 mm 0.00 in0.0 mm
09:40 AM 49.0°F9.4°C 35.3°F1.8°C 59% 1.2 mph N1.9 kmh N 3.5 mph5.6 kmh 30.03 in1016.9 mb - 0.00 in0.0 mm 0.00 in0.0 mm
09:30 AM 48.8°F9.3°C 35.1°F1.7°C 59% 2.3 mph N3.7 kmh N 5.8 mph9.3 kmh 30.03 in1016.9 mb - 0.00 in0.0 mm 0.00 in0.0 mm
09:20 AM 48.7°F9.3°C 35.4°F1.9°C 60% 2.3 mph N3.7 kmh N 4.6 mph7.4 kmh 30.03 in1016.9 mb - 0.00 in0.0 mm 0.00 in0.0 mm
09:10 AM 48.7°F9.3°C 35.0°F1.7°C 59% 2.3 mph NNW3.7 kmh NNW 3.5 mph5.6 kmh 30.02 in1016.6 mb - 0.00 in0.0 mm 0.00 in0.0 mm
09:00 AM 48.7°F9.3°C 35.0°F1.7°C 59% 1.2 mph N1.9 kmh N 4.6 mph7.4 kmh 30.02 in1016.6 mb - 0.00 in0.0 mm 0.00 in0.0 mm
08:50 AM 48.5°F9.2°C 34.4°F1.3°C 58% 2.3 mph NNW3.7 kmh NNW 4.6 mph7.4 kmh 30.02 in1016.6 mb - 0.00 in0.0 mm 0.00 in0.0 mm
08:40 AM 48.5°F9.2°C 33.9°F1.1°C 57% 1.2 mph NNW1.9 kmh NNW 1.2 mph1.9 kmh 30.02 in1016.6 mb - 0.00 in0.0 mm 0.00 in0.0 mm
08:30 AM 48.5°F9.2°C 34.4°F1.3°C 58% 2.3 mph NW3.7 kmh NW 6.9 mph11.1 kmh 30.02 in1016.6 mb - 0.00 in0.0 mm 0.00 in0.0 mm
08:20 AM 48.6°F9.2°C 34.5°F1.4°C 58% 1.2 mph NW1.9 kmh NW 8.1 mph13.0 kmh 30.01 in1016.3 mb - 0.00 in0.0 mm 0.00 in0.0 mm
08:10 AM 48.7°F9.3°C 34.1°F1.2°C 57% 1.2 mph NNW1.9 kmh NNW 5.8 mph9.3 kmh 30.01 in1016.3 mb - 0.00 in0.0 mm 0.00 in0.0 mm
08:00 AM 48.8°F9.3°C 33.8°F1.0°C 56% 1.2 mph NW1.9 kmh NW 2.3 mph3.7 kmh 30.01 in1016.3 mb - 0.00 in0.0 mm 0.00 in0.0 mm
07:50 AM 48.7°F9.3°C 32.8°F0.4°C 54% 2.3 mph NW3.7 kmh NW 4.6 mph7.4 kmh 30.01 in1016.3 mb - 0.00 in0.0 mm 0.00 in0.0 mm
07:40 AM 48.6°F9.2°C 32.7°F0.4°C 54% Calm Calm 1.2 mph1.9 kmh 30.01 in1016.3 mb - 0.00 in0.0 mm 0.00 in0.0 mm
07:30 AM 48.4°F9.1°C 32.0°F0.0°C 53% Calm Calm 3.5 mph5.6 kmh 30.00 in1015.9 mb - 0.00 in0.0 mm 0.00 in0.0 mm
07:20 AM 48.2°F9.0°C 31.9°F-0.1°C 53% 1.2 mph NW1.9 kmh NW 6.9 mph11.1 kmh 30.00 in1015.9 mb - 0.00 in0.0 mm 0.00 in0.0 mm
07:10 AM 48.1°F8.9°C 31.8°F-0.1°C 53% Calm Calm 2.3 mph3.7 kmh 29.98 in1015.2 mb - 0.00 in0.0 mm 0.00 in0.0 mm
07:00 AM 48.2°F9.0°C 31.9°F-0.1°C 53% 1.2 mph NW1.9 kmh NW 3.5 mph5.6 kmh 29.98 in1015.2 mb - 0.00 in0.0 mm 0.00 in0.0 mm
06:50 AM 48.3°F9.1°C 31.9°F-0.1°C 53% 1.2 mph W1.9 kmh W 2.3 mph3.7 kmh 29.98 in1015.2 mb - 0.00 in0.0 mm 0.00 in0.0 mm
06:40 AM 48.5°F9.2°C 31.2°F-0.4°C 51% Calm Calm -- 29.98 in1015.2 mb - 0.00 in0.0 mm 0.00 in0.0 mm
06:30 AM 48.5°F9.2°C 30.7°F-0.7°C 50% Calm Calm -- 29.98 in1015.2 mb - 0.00 in0.0 mm 0.00 in0.0 mm
06:20 AM 48.6°F9.2°C 30.8°F-0.7°C 50% Calm Calm -- 29.98 in1015.2 mb - 0.00 in0.0 mm 0.00 in0.0 mm
06:10 AM 48.6°F9.2°C 30.8°F-0.7°C 50% Calm Calm 2.3 mph3.7 kmh 29.98 in1015.2 mb - 0.00 in0.0 mm 0.00 in0.0 mm
06:00 AM 48.6°F9.2°C 31.3°F-0.4°C 51% Calm Calm 2.3 mph3.7 kmh 29.99 in1015.6 mb - 0.00 in0.0 mm 0.00 in0.0 mm
05:50 AM 48.6°F9.2°C 30.8°F-0.7°C 50% 1.2 mph NW1.9 kmh NW 5.8 mph9.3 kmh 29.99 in1015.6 mb - 0.00 in0.0 mm 0.00 in0.0 mm
05:40 AM 48.5°F9.2°C 30.2°F-1.0°C 49% 1.2 mph WNW1.9 kmh WNW 4.6 mph7.4 kmh 29.98 in1015.2 mb - 0.00 in0.0 mm 0.00 in0.0 mm
05:30 AM 48.5°F9.2°C 29.7°F-1.3°C 48% Calm Calm 2.3 mph3.7 kmh 29.98 in1015.2 mb - 0.00 in0.0 mm 0.00 in0.0 mm
05:20 AM 48.6°F9.2°C 30.2°F-1.0°C 49% Calm Calm 1.2 mph1.9 kmh 29.98 in1015.2 mb - 0.00 in0.0 mm 0.00 in0.0 mm
05:10 AM 48.6°F9.2°C 29.8°F-1.2°C 48% Calm Calm -- 29.98 in1015.2 mb - 0.00 in0.0 mm 0.00 in0.0 mm
05:00 AM 48.6°F9.2°C 29.8°F-1.2°C 48% Calm Calm -- 29.98 in1015.2 mb - 0.00 in0.0 mm 0.00 in0.0 mm
04:50 AM 48.6°F9.2°C 30.8°F-0.7°C 50% Calm Calm -- 29.98 in1015.2 mb - 0.00 in0.0 mm 0.00 in0.0 mm
04:40 AM 48.6°F9.2°C 30.8°F-0.7°C 50% Calm Calm -- 29.98 in1015.2 mb - 0.00 in0.0 mm 0.00 in0.0 mm
04:30 AM 48.6°F9.2°C 31.3°F-0.4°C 51% Calm Calm -- 29.98 in1015.2 mb - 0.00 in0.0 mm 0.00 in0.0 mm
04:20 AM 48.7°F9.3°C 31.8°F-0.1°C 52% Calm Calm -- 29.98 in1015.2 mb - 0.00 in0.0 mm 0.00 in0.0 mm
04:10 AM 48.7°F9.3°C 31.4°F-0.3°C 51% Calm Calm -- 29.98 in1015.2 mb - 0.00 in0.0 mm 0.00 in0.0 mm
04:00 AM 48.8°F9.3°C 31.9°F-0.1°C 52% Calm Calm -- 29.98 in1015.2 mb - 0.00 in0.0 mm 0.00 in0.0 mm
03:50 AM 48.9°F9.4°C 32.5°F0.3°C 53% Calm Calm -- 29.98 in1015.2 mb - 0.00 in0.0 mm 0.00 in0.0 mm
03:40 AM 49.1°F9.5°C 33.2°F0.7°C 54% Calm Calm -- 29.99 in1015.6 mb - 0.00 in0.0 mm 0.00 in0.0 mm
03:30 AM 49.3°F9.6°C 32.4°F0.2°C 52% Calm Calm -- 29.99 in1015.6 mb - 0.00 in0.0 mm 0.00 in0.0 mm
03:20 AM 49.5°F9.7°C 32.6°F0.3°C 52% Calm Calm -- 29.99 in1015.6 mb - 0.00 in0.0 mm 0.00 in0.0 mm
03:10 AM 49.6°F9.8°C 32.7°F0.4°C 52% Calm Calm -- 29.99 in1015.6 mb - 0.00 in0.0 mm 0.00 in0.0 mm
03:00 AM 49.8°F9.9°C 32.4°F0.2°C 51% Calm Calm -- 29.99 in1015.6 mb - 0.00 in0.0 mm 0.00 in0.0 mm
02:50 AM 49.9°F9.9°C 32.5°F0.3°C 51% Calm Calm -- 29.99 in1015.6 mb - 0.00 in0.0 mm 0.00 in0.0 mm
02:40 AM 50.0°F10.0°C 32.1°F0.1°C 50% Calm Calm -- 29.99 in1015.6 mb - 0.00 in0.0 mm 0.00 in0.0 mm
02:30 AM 50.0°F10.0°C 32.1°F0.1°C 50% Calm Calm -- 29.99 in1015.6 mb - 0.00 in0.0 mm 0.00 in0.0 mm
02:20 AM 50.0°F10.0°C 31.6°F-0.2°C 49% Calm Calm -- 30.00 in1015.9 mb - 0.00 in0.0 mm 0.00 in0.0 mm
02:10 AM 50.0°F10.0°C 31.6°F-0.2°C 49% Calm Calm -- 30.00 in1015.9 mb - 0.00 in0.0 mm 0.00 in0.0 mm
02:00 AM 49.9°F9.9°C 32.0°F0.0°C 50% Calm Calm -- 30.00 in1015.9 mb - 0.00 in0.0 mm 0.00 in0.0 mm
01:50 AM 49.9°F9.9°C 32.0°F0.0°C 50% Calm Calm 2.3 mph3.7 kmh 30.00 in1015.9 mb - 0.00 in0.0 mm 0.00 in0.0 mm
01:40 AM 49.9°F9.9°C 32.5°F0.3°C 51% Calm Calm 2.3 mph3.7 kmh 30.01 in1016.3 mb - 0.00 in0.0 mm 0.00 in0.0 mm
01:30 AM 50.0°F10.0°C 33.1°F0.6°C 52% Calm Calm -- 30.01 in1016.3 mb - 0.00 in0.0 mm 0.00 in0.0 mm
01:20 AM 50.1°F10.1°C 33.1°F0.6°C 52% Calm Calm 1.2 mph1.9 kmh 30.01 in1016.3 mb - 0.00 in0.0 mm 0.00 in0.0 mm
01:10 AM 50.2°F10.1°C 32.8°F0.4°C 51% Calm Calm -- 30.01 in1016.3 mb - 0.00 in0.0 mm 0.00 in0.0 mm
01:00 AM 50.3°F10.2°C 33.3°F0.7°C 52% Calm Calm -- 30.01 in1016.3 mb - 0.00 in0.0 mm 0.00 in0.0 mm
12:50 AM 50.3°F10.2°C 32.9°F0.5°C 51% Calm Calm 1.2 mph1.9 kmh 30.01 in1016.3 mb - 0.00 in0.0 mm 0.00 in0.0 mm
12:40 AM 50.3°F10.2°C 32.8°F0.4°C 51% Calm Calm 1.2 mph1.9 kmh 30.02 in1016.6 mb - 0.00 in0.0 mm 0.00 in0.0 mm
12:30 AM 50.3°F10.2°C 32.4°F0.2°C 50% Calm Calm -- 30.02 in1016.6 mb - 0.00 in0.0 mm 0.00 in0.0 mm
12:20 AM 50.3°F10.2°C 32.8°F0.4°C 51% 1.2 mph SW1.9 kmh SW 2.3 mph3.7 kmh 30.02 in1016.6 mb - 0.00 in0.0 mm 0.00 in0.0 mm
12:10 AM 50.3°F10.2°C 32.8°F0.4°C 51% 1.2 mph SW1.9 kmh SW 2.3 mph3.7 kmh 30.02 in1016.6 mb - 0.00 in0.0 mm 0.00 in0.0 mm
12:00 AM 50.4°F10.2°C 33.9°F1.1°C 53% 1.2 mph SSW1.9 kmh SSW 3.5 mph5.6 kmh 30.01 in1016.3 mb - 0.00 in0.0 mm 0.00 in0.0 mm